West St. Catharines

*Note: All times are displayed in the local standard time of the station location.
**Rain - Equipment is designed to accurately record liquid precipitation; under conditions when precipitation is not in liquid form, the data displayed may not properly reflect rainfall values.

Date Max Temp
(°C)
Min Temp
(°C)
Avg Temp
(°C)
Rain (mm) Avg RH (%) Solar Rad (kJ/m2)
Fri, Feb 15, 2019 5.2 -4.1 1.3 3.8 88.4 4391.3
Thu, Feb 14, 2019 4.9 -4.6 -0.4 0.0 86.8 6422.8
Wed, Feb 13, 2019 1.1 -4.4 -2.4 0.2 95.4 4563.0
Tue, Feb 12, 2019 2.7 -5.0 -1.8 13.8 96.0 1936.2
Mon, Feb 11, 2019 -1.9 -4.5 -3.2 0.0 89.3 2506.5
Sun, Feb 10, 2019 -2.3 -10.1 -5.9 0.0 88.6 5800.4
Sat, Feb 09, 2019 -4.2 -9.8 -6.8 0.0 79.7 5499.4
DateTime Avg Temp (°C) Rain (mm) RH (%) Solar Rad (kJ/m2)
Sat, Feb 16, 2019 16:00 -2.1 0.0 77.2 943.4
Sat, Feb 16, 2019 15:00 -2.2 0.0 78.0 1401.9
Sat, Feb 16, 2019 14:00 -2.3 0.0 78.8 1710.6
Sat, Feb 16, 2019 13:00 -2.6 0.0 79.3 1695.1
Sat, Feb 16, 2019 12:00 -3.0 0.0 79.0 1482.6
Sat, Feb 16, 2019 11:00 -3.5 0.0 81.6 1084.3
Sat, Feb 16, 2019 10:00 -3.4 0.0 81.9 885.8
Sat, Feb 16, 2019 09:00 -3.6 0.0 79.3 541.1
Sat, Feb 16, 2019 08:00 -4.2 0.0 83.9 89.7
Sat, Feb 16, 2019 07:00 -3.9 0.0 88.3 0.0
Sat, Feb 16, 2019 06:00 -3.3 0.0 93.4 0.6
Sat, Feb 16, 2019 05:00 -3.3 0.0 94.8 1.2
Sat, Feb 16, 2019 04:00 -3.4 0.0 93.8 0.6
Sat, Feb 16, 2019 03:00 -3.4 0.0 93.3 0.0
Sat, Feb 16, 2019 02:00 -3.5 0.0 91.3 0.9
Sat, Feb 16, 2019 01:00 -3.8 0.0 89.5 0.6
Sat, Feb 16, 2019 00:00 -3.8 0.0 88.3 0.9
Fri, Feb 15, 2019 23:00 -4.1 0.0 85.5 0.9
Fri, Feb 15, 2019 22:00 -3.6 0.0 83.1 0.9
Fri, Feb 15, 2019 21:00 -2.9 0.0 82.3 1.2
Fri, Feb 15, 2019 20:00 -2.1 0.0 85.3 0.3
Fri, Feb 15, 2019 19:00 -1.7 0.0 82.8 0.3
Fri, Feb 15, 2019 18:00 -0.9 0.0 82.0 39.1
Fri, Feb 15, 2019 17:00 -0.2 0.0 77.6 129.8
Fri, Feb 15, 2019 16:00 0.4 0.0 81.3 485.0
Fri, Feb 15, 2019 15:00 0.8 0.0 81.8 769.9
Fri, Feb 15, 2019 14:00 1.8 0.0 80.5 657.9
Fri, Feb 15, 2019 13:00 2.2 0.0 80.0 474.8
Fri, Feb 15, 2019 12:00 2.9 0.0 85.9 481.1
Fri, Feb 15, 2019 11:00 4.2 0.0 92.5 552.4
Fri, Feb 15, 2019 10:00 4.4 0.0 98.6 722.2
Fri, Feb 15, 2019 09:00 3.6 0.2 99.9 56.1
Fri, Feb 15, 2019 08:00 4.2 0.0 99.9 15.5
Fri, Feb 15, 2019 07:00 4.0 0.4 99.9 0.0
Fri, Feb 15, 2019 06:00 4.2 1.6 99.9 0.3
Fri, Feb 15, 2019 05:00 4.4 1.0 99.9 0.3
Fri, Feb 15, 2019 04:00 4.9 0.6 94.6 0.6
Fri, Feb 15, 2019 03:00 3.9 0.0 89.1 0.9
Fri, Feb 15, 2019 02:00 1.0 0.0 97.6 0.6
Fri, Feb 15, 2019 01:00 4.8 0.0 73.9 0.3
Fri, Feb 15, 2019 00:00 1.8 0.0 92.1 0.0
Thu, Feb 14, 2019 23:00 4.6 0.0 73.3 0.3
Thu, Feb 14, 2019 22:00 3.5 0.0 77.1 0.6
Thu, Feb 14, 2019 21:00 -0.6 0.0 99.4 0.9
Thu, Feb 14, 2019 20:00 -0.7 0.0 97.8 0.6
Thu, Feb 14, 2019 19:00 0.6 0.0 90.5 0.6
Thu, Feb 14, 2019 18:00 1.8 0.0 80.8 58.2
Thu, Feb 14, 2019 17:00 2.8 0.0 76.7 240.5


asterix Register now to access more data! asterix